createdAt,value
2019-06-26T00:04:58.651Z,100789.80
2019-06-26T00:10:07.700Z,100784.84
2019-06-26T00:15:14.892Z,100788.42
2019-06-26T00:20:18.050Z,100792.38
2019-06-26T00:25:40.693Z,100794.17
2019-06-26T00:30:56.918Z,100797.16
2019-06-26T00:36:09.554Z,100798.20
2019-06-26T00:41:23.102Z,100799.57
2019-06-26T00:46:27.040Z,100806.12
2019-06-26T00:51:34.324Z,100802.20
2019-06-26T00:56:38.770Z,100800.05
2019-06-26T01:01:44.162Z,100801.25
2019-06-26T01:07:05.717Z,100795.98
2019-06-26T01:12:09.957Z,100800.13
2019-06-26T01:17:29.766Z,100805.09
2019-06-26T01:22:40.438Z,100805.94
2019-06-26T01:33:13.120Z,100804.56
2019-06-26T01:38:17.320Z,100814.32
2019-06-26T01:43:20.258Z,100814.36
2019-06-26T01:48:23.038Z,100809.94
2019-06-26T01:53:25.405Z,100819.48
2019-06-26T01:58:28.320Z,100818.12
2019-06-26T02:03:31.476Z,100821.55
2019-06-26T02:08:33.552Z,100826.49
2019-06-26T02:13:42.257Z,100822.55
2019-06-26T02:18:59.076Z,100819.98
2019-06-26T02:24:01.664Z,100818.62
2019-06-26T02:29:19.614Z,100818.45
2019-06-26T02:34:21.875Z,100823.92
2019-06-26T02:39:27.901Z,100829.19
2019-06-26T02:44:51.460Z,100821.02
2019-06-26T02:49:38.851Z,100817.94
2019-06-26T02:54:43.087Z,100818.41
2019-06-26T02:59:45.488Z,100819.80
2019-06-26T03:04:50.630Z,100826.98
2019-06-26T03:09:53.669Z,100828.48
2019-06-26T03:15:08.163Z,100828.84
2019-06-26T03:20:02.543Z,100828.60
2019-06-26T03:25:06.110Z,100834.71
2019-06-26T03:30:10.424Z,100841.68
2019-06-26T03:35:13.117Z,100851.36
2019-06-26T03:40:15.599Z,100856.42
2019-06-26T03:45:25.611Z,100860.36
2019-06-26T03:50:24.790Z,100863.37
2019-06-26T03:55:34.299Z,100866.46
2019-06-26T04:00:41.170Z,100868.63
2019-06-26T04:05:45.754Z,100867.14
2019-06-26T04:10:47.846Z,100872.39
2019-06-26T04:15:51.063Z,100875.48
2019-06-26T04:20:56.098Z,100882.90
2019-06-26T04:26:01.547Z,100888.29
2019-06-26T04:31:06.954Z,100892.84
2019-06-26T04:36:09.682Z,100893.50
2019-06-26T04:41:14.223Z,100899.41
2019-06-26T04:46:19.321Z,100901.67
2019-06-26T04:51:23.641Z,100904.42
2019-06-26T04:56:25.694Z,100910.23
2019-06-26T05:01:27.777Z,100925.55
2019-06-26T05:06:32.817Z,100922.38
2019-06-26T05:11:35.890Z,100923.39
2019-06-26T05:16:39.744Z,100927.40
2019-06-26T05:21:42.354Z,100930.77
2019-06-26T05:26:44.392Z,100937.11
2019-06-26T05:31:49.571Z,100936.89
2019-06-26T05:36:55.281Z,100938.52
2019-06-26T05:41:59.011Z,100946.40
2019-06-26T05:47:01.041Z,100956.16
2019-06-26T05:52:05.115Z,100961.93
2019-06-26T05:57:07.532Z,100957.73
2019-06-26T06:02:09.843Z,100954.28
2019-06-26T06:07:12.519Z,100962.66
2019-06-26T06:12:15.328Z,100965.08
2019-06-26T06:17:19.316Z,100965.91
2019-06-26T06:22:22.534Z,100963.18
2019-06-26T06:27:26.916Z,100966.63
2019-06-26T06:32:30.985Z,100965.06
2019-06-26T06:37:46.766Z,100970.87
2019-06-26T06:42:49.182Z,100974.00
2019-06-26T06:47:55.904Z,100973.16
2019-06-26T06:52:58.976Z,100977.26
2019-06-26T06:58:04.182Z,100982.36
2019-06-26T07:03:15.567Z,100982.67
2019-06-26T07:08:19.818Z,101001.81
2019-06-26T07:13:30.596Z,101004.38
2019-06-26T07:18:33.991Z,101002.63
2019-06-26T07:23:36.757Z,100997.50
2019-06-26T07:28:39.439Z,101002.58
2019-06-26T07:33:45.853Z,101009.40
2019-06-26T07:38:50.549Z,101008.70
2019-06-26T07:43:53.345Z,101014.31
2019-06-26T07:50:03.282Z,101028.42
2019-06-26T07:55:11.896Z,101017.63
2019-06-26T08:00:17.388Z,101030.71
2019-06-26T08:05:21.311Z,101027.58
2019-06-26T08:10:25.647Z,101030.48
2019-06-26T08:15:28.561Z,101025.70
2019-06-26T08:20:30.750Z,101027.34
2019-06-26T08:25:33.928Z,101035.58
2019-06-26T08:30:39.777Z,101034.41
2019-06-26T08:35:45.465Z,101043.82
2019-06-26T08:40:50.571Z,101041.96
2019-06-26T08:45:54.180Z,101045.55
2019-06-26T08:51:02.775Z,101041.66
2019-06-26T08:56:06.641Z,101043.30
2019-06-26T09:01:09.652Z,101042.89
2019-06-26T09:06:13.176Z,101037.97
2019-06-26T09:11:16.568Z,101039.17
2019-06-26T09:16:19.798Z,101045.92
2019-06-26T09:21:26.179Z,101036.31
2019-06-26T09:26:32.818Z,101043.10
2019-06-26T09:31:37.082Z,101036.58
2019-06-26T09:36:42.251Z,101039.69
2019-06-26T09:41:48.817Z,101036.27
2019-06-26T09:46:50.899Z,101034.05
2019-06-26T09:51:54.581Z,101038.44
2019-06-26T09:56:59.811Z,101034.03
2019-06-26T10:02:02.675Z,101025.58
2019-06-26T10:07:07.526Z,101027.86
2019-06-26T10:12:11.938Z,101024.08
2019-06-26T10:17:16.678Z,101031.31
2019-06-26T10:22:18.701Z,101029.35
2019-06-26T10:27:23.794Z,101028.88
2019-06-26T10:32:27.678Z,101032.36
2019-06-26T10:37:34.561Z,101030.04
2019-06-26T10:42:36.961Z,101024.32
2019-06-26T10:47:41.802Z,101024.94
2019-06-26T10:52:44.684Z,101016.76
2019-06-26T10:57:47.152Z,101014.81
2019-06-26T11:02:49.269Z,101009.19
2019-06-26T11:07:53.331Z,101013.37
2019-06-26T11:12:58.425Z,101004.61
2019-06-26T11:18:00.523Z,101003.45
2019-06-26T11:23:02.600Z,100995.45
2019-06-26T11:28:09.209Z,100985.56
2019-06-26T11:33:15.271Z,100992.89
2019-06-26T11:38:17.405Z,100979.53
2019-06-26T11:43:19.856Z,100976.03
2019-06-26T11:48:22.385Z,100978.47
2019-06-26T11:53:32.290Z,100970.55
2019-06-26T11:58:38.257Z,100971.06
2019-06-26T12:03:47.007Z,100964.49
2019-06-26T12:08:49.898Z,100961.33
2019-06-26T12:13:52.622Z,100962.37
2019-06-26T12:18:54.639Z,100964.85
2019-06-26T12:23:59.758Z,100956.91
2019-06-26T12:29:01.854Z,100956.31
2019-06-26T12:34:04.636Z,100956.66
2019-06-26T12:39:06.969Z,100960.15
2019-06-26T12:44:09.925Z,100956.89
2019-06-26T12:49:15.285Z,100956.16
2019-06-26T12:54:19.542Z,100958.30
2019-06-26T12:59:24.897Z,100948.73
2019-06-26T13:04:28.426Z,100948.84
2019-06-26T13:09:31.713Z,100941.47
2019-06-26T13:14:33.775Z,100938.31
2019-06-26T13:19:35.950Z,100926.60
2019-06-26T13:24:43.648Z,100911.09
2019-06-26T13:29:46.557Z,100921.56
2019-06-26T13:34:50.031Z,100914.03
2019-06-26T13:39:52.201Z,100910.92
2019-06-26T13:44:55.454Z,100910.26
2019-06-26T13:49:57.496Z,100913.08
2019-06-26T13:54:59.838Z,100905.41
2019-06-26T14:00:01.860Z,100905.00
2019-06-26T14:05:04.204Z,100898.18
2019-06-26T14:10:09.414Z,100899.17
2019-06-26T14:15:12.172Z,100901.16
2019-06-26T14:20:14.374Z,100893.33
2019-06-26T14:25:16.649Z,100891.55
2019-06-26T14:30:21.254Z,100889.16
2019-06-26T14:35:25.517Z,100885.02
2019-06-26T14:40:27.587Z,100886.16
2019-06-26T14:45:33.076Z,100879.98
2019-06-26T14:50:35.102Z,100877.06
2019-06-26T14:55:39.242Z,100875.27
2019-06-26T15:00:41.259Z,100871.50
2019-06-26T15:05:43.263Z,100871.88
2019-06-26T15:10:47.075Z,100871.20
2019-06-26T15:15:49.069Z,100874.88
2019-06-26T15:20:51.423Z,100867.48
2019-06-26T15:25:56.400Z,100865.34
2019-06-26T15:30:59.135Z,100865.73
2019-06-26T15:36:01.211Z,100858.73
2019-06-26T15:41:03.761Z,100854.36
2019-06-26T15:46:05.768Z,100847.11
2019-06-26T15:51:07.843Z,100845.64
2019-06-26T15:56:10.800Z,100836.11
2019-06-26T16:01:16.726Z,100835.74
2019-06-26T16:06:19.093Z,100830.34
2019-06-26T16:11:21.481Z,100822.22
2019-06-26T16:16:25.330Z,100819.59
2019-06-26T16:21:30.790Z,100819.16
2019-06-26T16:26:33.597Z,100814.52
2019-06-26T16:31:37.484Z,100808.50
2019-06-26T16:36:40.657Z,100813.81
2019-06-26T16:41:42.923Z,100812.63
2019-06-26T16:46:45.664Z,100814.17
2019-06-26T16:51:49.440Z,100809.66
2019-06-26T16:56:51.973Z,100808.81
2019-06-26T17:01:54.012Z,100809.38
2019-06-26T17:06:56.358Z,100808.14
2019-06-26T17:11:58.781Z,100807.82
2019-06-26T17:17:00.815Z,100808.66
2019-06-26T17:22:07.030Z,100802.78
2019-06-26T17:27:09.039Z,100811.02
2019-06-26T17:32:11.409Z,100806.98
2019-06-26T17:37:15.683Z,100809.99
2019-06-26T17:42:19.119Z,100806.17
2019-06-26T17:47:21.983Z,100807.02
2019-06-26T17:52:24.045Z,100804.25
2019-06-26T17:57:28.873Z,100802.47
2019-06-26T18:02:31.877Z,100797.13
2019-06-26T18:07:33.884Z,100795.98
2019-06-26T18:12:39.523Z,100802.48
2019-06-26T18:17:43.142Z,100807.75
2019-06-26T18:22:45.207Z,100813.34
2019-06-26T18:27:47.213Z,100811.95
2019-06-26T18:33:09.389Z,100817.41
2019-06-26T18:38:11.524Z,100817.33
2019-06-26T18:43:15.901Z,100827.29
2019-06-26T18:48:17.997Z,100829.02
2019-06-26T18:53:27.662Z,100831.94
2019-06-26T18:58:33.991Z,100834.07
2019-06-26T19:03:40.222Z,100830.77
2019-06-26T19:08:45.246Z,100831.52
2019-06-26T19:13:48.076Z,100828.02
2019-06-26T19:18:51.233Z,100835.80
2019-06-26T19:24:09.157Z,100840.70
2019-06-26T19:28:59.357Z,100847.56
2019-06-26T19:34:02.128Z,100850.38
2019-06-26T19:39:06.357Z,100856.75
2019-06-26T19:44:11.344Z,100870.75
2019-06-26T19:49:17.069Z,100877.54
2019-06-26T19:54:27.066Z,100885.99
2019-06-26T19:59:24.153Z,100887.83
2019-06-26T20:04:26.138Z,100897.16
2019-06-26T20:09:28.156Z,100898.66
2019-06-26T20:14:32.063Z,100901.52
2019-06-26T20:19:35.552Z,100898.37
2019-06-26T20:24:44.610Z,100901.60
2019-06-26T20:29:48.317Z,100906.45
2019-06-26T20:34:53.297Z,100909.70
2019-06-26T20:39:56.371Z,100916.94
2019-06-26T20:45:15.034Z,100922.28
2019-06-26T20:50:21.644Z,100918.55
2019-06-26T20:55:25.326Z,100927.88
2019-06-26T21:00:27.444Z,100928.01
2019-06-26T21:05:31.366Z,100941.68
2019-06-26T21:10:33.391Z,100951.09
2019-06-26T21:15:36.721Z,100955.81
2019-06-26T21:20:40.296Z,100965.36
2019-06-26T21:25:42.336Z,100974.83
2019-06-26T21:30:45.175Z,100980.80
2019-06-26T21:35:48.629Z,100987.83
2019-06-26T21:40:50.972Z,100991.69
2019-06-26T21:45:54.491Z,100996.84
2019-06-26T21:50:56.538Z,101004.48
2019-06-26T21:55:59.356Z,101005.28
2019-06-26T22:01:05.937Z,101004.20
2019-06-26T22:06:08.263Z,101006.37
2019-06-26T22:11:10.728Z,101009.34
2019-06-26T22:16:13.422Z,101019.78
2019-06-26T22:21:16.491Z,101023.84
2019-06-26T22:26:18.980Z,101027.19
2019-06-26T22:31:21.087Z,101026.80
2019-06-26T22:36:24.218Z,101027.77
2019-06-26T22:41:28.553Z,101028.94
2019-06-26T22:46:30.701Z,101038.02
2019-06-26T22:51:35.085Z,101030.05
2019-06-26T22:56:38.571Z,101042.29
2019-06-26T23:01:44.563Z,101032.34
2019-06-26T23:06:47.681Z,101032.59
2019-06-26T23:11:50.417Z,101038.06
2019-06-26T23:16:54.370Z,101044.41
2019-06-26T23:21:56.901Z,101044.31
2019-06-26T23:27:05.092Z,101043.72
2019-06-26T23:32:10.474Z,101050.97
2019-06-26T23:37:12.844Z,101051.65
2019-06-26T23:42:14.918Z,101056.31
2019-06-26T23:47:18.203Z,101062.30
2019-06-26T23:52:21.448Z,101064.17
2019-06-26T23:57:36.074Z,101071.78
